sensor_id;sensor_type;location;lat;lon;timestamp;P1;durP1;ratioP1;P2;durP2;ratioP2
1563;SDS011;775;51.958;7.976;2023-04-06T00:00:15;14.53;;;6.10;;
1563;SDS011;775;51.958;7.976;2023-04-06T00:02:42;13.93;;;5.77;;
1563;SDS011;775;51.958;7.976;2023-04-06T00:05:09;16.43;;;7.30;;
1563;SDS011;775;51.958;7.976;2023-04-06T00:07:37;13.87;;;5.93;;
1563;SDS011;775;51.958;7.976;2023-04-06T00:10:04;13.70;;;6.20;;
1563;SDS011;775;51.958;7.976;2023-04-06T00:12:31;17.07;;;6.40;;
1563;SDS011;775;51.958;7.976;2023-04-06T00:14:59;14.27;;;6.20;;
1563;SDS011;775;51.958;7.976;2023-04-06T00:17:28;16.40;;;6.70;;
1563;SDS011;775;51.958;7.976;2023-04-06T00:19:55;15.00;;;7.03;;
1563;SDS011;775;51.958;7.976;2023-04-06T00:22:22;14.83;;;6.20;;
1563;SDS011;775;51.958;7.976;2023-04-06T00:24:50;12.10;;;5.60;;
1563;SDS011;775;51.958;7.976;2023-04-06T00:27:17;17.30;;;6.50;;
1563;SDS011;775;51.958;7.976;2023-04-06T00:29:44;17.17;;;6.47;;
1563;SDS011;775;51.958;7.976;2023-04-06T00:32:11;13.50;;;6.10;;
1563;SDS011;775;51.958;7.976;2023-04-06T00:34:40;15.50;;;7.27;;
1563;SDS011;775;51.958;7.976;2023-04-06T00:37:07;14.33;;;6.90;;
1563;SDS011;775;51.958;7.976;2023-04-06T00:39:34;14.00;;;6.40;;
1563;SDS011;775;51.958;7.976;2023-04-06T00:42:01;15.20;;;6.20;;
1563;SDS011;775;51.958;7.976;2023-04-06T00:44:33;15.53;;;6.67;;
1563;SDS011;775;51.958;7.976;2023-04-06T00:47:00;17.13;;;7.07;;
1563;SDS011;775;51.958;7.976;2023-04-06T00:49:28;13.47;;;5.93;;
1563;SDS011;775;51.958;7.976;2023-04-06T00:51:56;12.90;;;5.60;;
1563;SDS011;775;51.958;7.976;2023-04-06T00:54:23;16.53;;;6.30;;
1563;SDS011;775;51.958;7.976;2023-04-06T00:56:51;15.30;;;6.40;;
1563;SDS011;775;51.958;7.976;2023-04-06T00:59:18;14.80;;;6.07;;
1563;SDS011;775;51.958;7.976;2023-04-06T01:01:45;14.63;;;6.00;;
1563;SDS011;775;51.958;7.976;2023-04-06T01:04:12;13.83;;;6.17;;
1563;SDS011;775;51.958;7.976;2023-04-06T01:06:40;13.80;;;6.40;;
1563;SDS011;775;51.958;7.976;2023-04-06T01:09:08;16.17;;;7.17;;
1563;SDS011;775;51.958;7.976;2023-04-06T01:11:35;14.33;;;5.80;;
1563;SDS011;775;51.958;7.976;2023-04-06T01:14:03;14.87;;;6.70;;
1563;SDS011;775;51.958;7.976;2023-04-06T01:16:30;13.67;;;6.03;;
1563;SDS011;775;51.958;7.976;2023-04-06T01:18:57;16.50;;;6.40;;
1563;SDS011;775;51.958;7.976;2023-04-06T01:21:24;13.50;;;6.30;;
1563;SDS011;775;51.958;7.976;2023-04-06T01:23:53;15.83;;;5.93;;
1563;SDS011;775;51.958;7.976;2023-04-06T01:26:20;14.10;;;6.80;;
1563;SDS011;775;51.958;7.976;2023-04-06T01:28:47;13.87;;;7.20;;
1563;SDS011;775;51.958;7.976;2023-04-06T01:31:14;14.63;;;6.47;;
1563;SDS011;775;51.958;7.976;2023-04-06T01:33:41;17.00;;;6.70;;
1563;SDS011;775;51.958;7.976;2023-04-06T01:36:09;15.20;;;6.53;;
1563;SDS011;775;51.958;7.976;2023-04-06T01:38:36;14.87;;;7.23;;
1563;SDS011;775;51.958;7.976;2023-04-06T01:41:04;13.57;;;6.40;;
1563;SDS011;775;51.958;7.976;2023-04-06T01:43:31;14.87;;;7.00;;
1563;SDS011;775;51.958;7.976;2023-04-06T01:45:58;14.23;;;6.50;;
1563;SDS011;775;51.958;7.976;2023-04-06T01:48:26;15.23;;;6.87;;
1563;SDS011;775;51.958;7.976;2023-04-06T01:50:53;14.33;;;6.67;;
1563;SDS011;775;51.958;7.976;2023-04-06T01:53:20;15.43;;;7.30;;
1563;SDS011;775;51.958;7.976;2023-04-06T01:55:47;17.13;;;6.90;;
1563;SDS011;775;51.958;7.976;2023-04-06T01:58:16;13.70;;;6.03;;
1563;SDS011;775;51.958;7.976;2023-04-06T02:00:43;14.80;;;7.00;;
1563;SDS011;775;51.958;7.976;2023-04-06T02:03:10;13.70;;;7.03;;
1563;SDS011;775;51.958;7.976;2023-04-06T02:05:39;14.00;;;6.80;;
1563;SDS011;775;51.958;7.976;2023-04-06T02:08:06;16.87;;;7.30;;
1563;SDS011;775;51.958;7.976;2023-04-06T02:10:34;14.53;;;7.30;;
1563;SDS011;775;51.958;7.976;2023-04-06T02:13:01;15.30;;;7.10;;
1563;SDS011;775;51.958;7.976;2023-04-06T02:15:29;16.87;;;6.90;;
1563;SDS011;775;51.958;7.976;2023-04-06T02:17:57;17.87;;;7.53;;
1563;SDS011;775;51.958;7.976;2023-04-06T02:20:24;14.73;;;6.70;;
1563;SDS011;775;51.958;7.976;2023-04-06T02:22:51;16.30;;;6.67;;
1563;SDS011;775;51.958;7.976;2023-04-06T02:25:18;16.30;;;6.83;;
1563;SDS011;775;51.958;7.976;2023-04-06T02:27:47;14.13;;;6.17;;
1563;SDS011;775;51.958;7.976;2023-04-06T02:30:15;15.70;;;6.90;;
1563;SDS011;775;51.958;7.976;2023-04-06T02:32:43;14.20;;;6.60;;
1563;SDS011;775;51.958;7.976;2023-04-06T02:35:10;16.70;;;6.50;;
1563;SDS011;775;51.958;7.976;2023-04-06T02:37:37;16.07;;;7.17;;
1563;SDS011;775;51.958;7.976;2023-04-06T02:40:05;15.27;;;6.57;;
1563;SDS011;775;51.958;7.976;2023-04-06T02:42:32;14.63;;;5.83;;
1563;SDS011;775;51.958;7.976;2023-04-06T02:45:00;15.67;;;6.50;;
1563;SDS011;775;51.958;7.976;2023-04-06T02:47:27;14.00;;;7.30;;
1563;SDS011;775;51.958;7.976;2023-04-06T02:49:55;16.23;;;7.70;;
1563;SDS011;775;51.958;7.976;2023-04-06T02:52:23;18.47;;;7.60;;
1563;SDS011;775;51.958;7.976;2023-04-06T02:54:50;15.63;;;6.80;;
1563;SDS011;775;51.958;7.976;2023-04-06T02:57:17;17.23;;;7.47;;
1563;SDS011;775;51.958;7.976;2023-04-06T02:59:44;17.03;;;7.43;;
1563;SDS011;775;51.958;7.976;2023-04-06T03:02:11;14.40;;;7.60;;
1563;SDS011;775;51.958;7.976;2023-04-06T03:04:39;14.50;;;6.90;;
1563;SDS011;775;51.958;7.976;2023-04-06T03:07:07;14.80;;;7.60;;
1563;SDS011;775;51.958;7.976;2023-04-06T03:09:36;20.47;;;7.93;;
1563;SDS011;775;51.958;7.976;2023-04-06T03:12:03;14.33;;;7.33;;
1563;SDS011;775;51.958;7.976;2023-04-06T03:14:30;15.10;;;7.60;;
1563;SDS011;775;51.958;7.976;2023-04-06T03:16:57;20.23;;;7.63;;
1563;SDS011;775;51.958;7.976;2023-04-06T03:19:25;15.77;;;6.97;;
1563;SDS011;775;51.958;7.976;2023-04-06T03:21:52;15.07;;;7.67;;
1563;SDS011;775;51.958;7.976;2023-04-06T03:24:21;15.70;;;7.83;;
1563;SDS011;775;51.958;7.976;2023-04-06T03:26:48;16.73;;;7.30;;
1563;SDS011;775;51.958;7.976;2023-04-06T03:29:15;16.43;;;7.30;;
1563;SDS011;775;51.958;7.976;2023-04-06T03:31:42;19.03;;;8.17;;
1563;SDS011;775;51.958;7.976;2023-04-06T03:34:09;14.07;;;6.20;;
1563;SDS011;775;51.958;7.976;2023-04-06T03:36:37;18.37;;;7.60;;
1563;SDS011;775;51.958;7.976;2023-04-06T03:39:04;14.20;;;6.87;;
1563;SDS011;775;51.958;7.976;2023-04-06T03:41:32;14.60;;;7.30;;
1563;SDS011;775;51.958;7.976;2023-04-06T03:44:00;15.60;;;7.33;;
1563;SDS011;775;51.958;7.976;2023-04-06T03:46:27;14.03;;;6.33;;
1563;SDS011;775;51.958;7.976;2023-04-06T03:48:54;17.40;;;7.50;;
1563;SDS011;775;51.958;7.976;2023-04-06T03:51:21;15.70;;;7.13;;
1563;SDS011;775;51.958;7.976;2023-04-06T03:53:48;14.67;;;7.03;;
1563;SDS011;775;51.958;7.976;2023-04-06T03:56:16;18.10;;;7.70;;
1563;SDS011;775;51.958;7.976;2023-04-06T03:58:44;15.93;;;7.53;;
1563;SDS011;775;51.958;7.976;2023-04-06T04:01:15;15.63;;;6.97;;
1563;SDS011;775;51.958;7.976;2023-04-06T04:03:42;14.43;;;6.57;;
1563;SDS011;775;51.958;7.976;2023-04-06T04:06:09;16.43;;;7.00;;
1563;SDS011;775;51.958;7.976;2023-04-06T04:08:36;14.70;;;6.73;;
1563;SDS011;775;51.958;7.976;2023-04-06T04:11:04;15.17;;;7.80;;
1563;SDS011;775;51.958;7.976;2023-04-06T04:13:31;14.90;;;7.70;;
1563;SDS011;775;51.958;7.976;2023-04-06T04:15:59;16.47;;;8.50;;
1563;SDS011;775;51.958;7.976;2023-04-06T04:18:26;16.70;;;7.93;;
1563;SDS011;775;51.958;7.976;2023-04-06T04:20:54;16.20;;;7.40;;
1563;SDS011;775;51.958;7.976;2023-04-06T04:23:21;15.33;;;8.13;;
1563;SDS011;775;51.958;7.976;2023-04-06T04:25:48;18.97;;;9.57;;
1563;SDS011;775;51.958;7.976;2023-04-06T04:28:16;15.20;;;7.80;;
1563;SDS011;775;51.958;7.976;2023-04-06T04:30:43;15.47;;;8.10;;
1563;SDS011;775;51.958;7.976;2023-04-06T04:33:11;15.17;;;7.47;;
1563;SDS011;775;51.958;7.976;2023-04-06T04:35:38;18.33;;;8.23;;
1563;SDS011;775;51.958;7.976;2023-04-06T04:38:06;20.30;;;7.60;;
1563;SDS011;775;51.958;7.976;2023-04-06T04:40:33;14.80;;;7.87;;
1563;SDS011;775;51.958;7.976;2023-04-06T04:43:00;15.90;;;7.50;;
1563;SDS011;775;51.958;7.976;2023-04-06T04:45:27;15.57;;;8.57;;
1563;SDS011;775;51.958;7.976;2023-04-06T04:47:54;13.83;;;6.93;;
1563;SDS011;775;51.958;7.976;2023-04-06T04:50:23;17.27;;;7.80;;
1563;SDS011;775;51.958;7.976;2023-04-06T04:52:50;20.10;;;8.10;;
1563;SDS011;775;51.958;7.976;2023-04-06T04:55:17;17.00;;;8.80;;
1563;SDS011;775;51.958;7.976;2023-04-06T04:57:44;15.60;;;7.90;;
1563;SDS011;775;51.958;7.976;2023-04-06T05:00:12;17.70;;;8.20;;
1563;SDS011;775;51.958;7.976;2023-04-06T05:02:39;13.93;;;7.73;;
1563;SDS011;775;51.958;7.976;2023-04-06T05:05:06;16.37;;;8.10;;
1563;SDS011;775;51.958;7.976;2023-04-06T05:07:35;16.40;;;8.37;;
1563;SDS011;775;51.958;7.976;2023-04-06T05:10:02;21.10;;;9.50;;
1563;SDS011;775;51.958;7.976;2023-04-06T05:12:30;15.63;;;7.57;;
1563;SDS011;775;51.958;7.976;2023-04-06T05:14:57;15.57;;;8.53;;
1563;SDS011;775;51.958;7.976;2023-04-06T05:17:24;15.00;;;7.93;;
1563;SDS011;775;51.958;7.976;2023-04-06T05:19:51;14.80;;;8.30;;
1563;SDS011;775;51.958;7.976;2023-04-06T05:22:18;17.33;;;9.27;;
1563;SDS011;775;51.958;7.976;2023-04-06T05:24:47;19.60;;;8.57;;
1563;SDS011;775;51.958;7.976;2023-04-06T05:27:14;18.33;;;8.93;;
1563;SDS011;775;51.958;7.976;2023-04-06T05:29:41;16.30;;;9.00;;
1563;SDS011;775;51.958;7.976;2023-04-06T05:32:09;19.73;;;10.00;;
1563;SDS011;775;51.958;7.976;2023-04-06T05:34:36;19.23;;;10.57;;
1563;SDS011;775;51.958;7.976;2023-04-06T05:37:03;19.33;;;10.23;;
1563;SDS011;775;51.958;7.976;2023-04-06T05:39:30;16.57;;;9.33;;
1563;SDS011;775;51.958;7.976;2023-04-06T05:42:01;20.30;;;11.47;;
1563;SDS011;775;51.958;7.976;2023-04-06T05:44:28;18.00;;;10.60;;
1563;SDS011;775;51.958;7.976;2023-04-06T05:46:55;18.80;;;10.63;;
1563;SDS011;775;51.958;7.976;2023-04-06T05:49:22;19.27;;;10.27;;
1563;SDS011;775;51.958;7.976;2023-04-06T05:51:50;17.77;;;10.50;;
1563;SDS011;775;51.958;7.976;2023-04-06T05:54:17;19.60;;;10.40;;
1563;SDS011;775;51.958;7.976;2023-04-06T05:56:44;16.90;;;9.20;;
1563;SDS011;775;51.958;7.976;2023-04-06T05:59:12;18.43;;;8.83;;
1563;SDS011;775;51.958;7.976;2023-04-06T06:01:40;17.10;;;8.30;;
1563;SDS011;775;51.958;7.976;2023-04-06T06:04:07;17.97;;;8.40;;
1563;SDS011;775;51.958;7.976;2023-04-06T06:06:35;18.43;;;8.70;;
1563;SDS011;775;51.958;7.976;2023-04-06T06:09:02;16.87;;;9.33;;
1563;SDS011;775;51.958;7.976;2023-04-06T06:11:29;19.50;;;9.67;;
1563;SDS011;775;51.958;7.976;2023-04-06T06:13:58;19.03;;;9.30;;
1563;SDS011;775;51.958;7.976;2023-04-06T06:16:26;20.97;;;9.97;;
1563;SDS011;775;51.958;7.976;2023-04-06T06:18:53;18.83;;;8.77;;
1563;SDS011;775;51.958;7.976;2023-04-06T06:21:21;24.43;;;9.00;;
1563;SDS011;775;51.958;7.976;2023-04-06T06:23:48;17.43;;;8.27;;
1563;SDS011;775;51.958;7.976;2023-04-06T06:26:15;15.47;;;7.67;;
1563;SDS011;775;51.958;7.976;2023-04-06T06:28:42;16.07;;;8.43;;
1563;SDS011;775;51.958;7.976;2023-04-06T06:31:09;16.07;;;8.80;;
1563;SDS011;775;51.958;7.976;2023-04-06T06:33:38;24.40;;;9.80;;
1563;SDS011;775;51.958;7.976;2023-04-06T06:36:05;18.43;;;8.97;;
1563;SDS011;775;51.958;7.976;2023-04-06T06:38:33;17.40;;;9.00;;
1563;SDS011;775;51.958;7.976;2023-04-06T06:41:00;18.27;;;8.90;;
1563;SDS011;775;51.958;7.976;2023-04-06T06:43:27;17.17;;;8.93;;
1563;SDS011;775;51.958;7.976;2023-04-06T06:45:54;16.83;;;8.73;;
1563;SDS011;775;51.958;7.976;2023-04-06T06:48:21;18.20;;;9.80;;
1563;SDS011;775;51.958;7.976;2023-04-06T06:50:50;17.80;;;8.53;;
1563;SDS011;775;51.958;7.976;2023-04-06T06:53:17;20.30;;;9.53;;
1563;SDS011;775;51.958;7.976;2023-04-06T06:55:44;16.63;;;8.23;;
1563;SDS011;775;51.958;7.976;2023-04-06T06:58:13;19.00;;;9.13;;
1563;SDS011;775;51.958;7.976;2023-04-06T07:00:41;16.43;;;8.43;;
1563;SDS011;775;51.958;7.976;2023-04-06T07:03:08;19.30;;;9.40;;
1563;SDS011;775;51.958;7.976;2023-04-06T07:05:35;15.53;;;8.63;;
1563;SDS011;775;51.958;7.976;2023-04-06T07:08:04;18.30;;;8.83;;
1563;SDS011;775;51.958;7.976;2023-04-06T07:10:31;19.20;;;8.90;;
1563;SDS011;775;51.958;7.976;2023-04-06T07:16:02;17.07;;;8.03;;
1563;SDS011;775;51.958;7.976;2023-04-06T07:24:36;15.87;;;7.93;;
1563;SDS011;775;51.958;7.976;2023-04-06T07:27:03;17.70;;;8.57;;
1563;SDS011;775;51.958;7.976;2023-04-06T07:29:31;15.50;;;7.53;;
1563;SDS011;775;51.958;7.976;2023-04-06T07:31:58;16.20;;;7.67;;
1563;SDS011;775;51.958;7.976;2023-04-06T07:34:25;16.83;;;7.40;;
1563;SDS011;775;51.958;7.976;2023-04-06T07:36:52;14.33;;;7.33;;
1563;SDS011;775;51.958;7.976;2023-04-06T07:39:19;17.07;;;7.67;;
1563;SDS011;775;51.958;7.976;2023-04-06T07:41:48;17.27;;;8.43;;
1563;SDS011;775;51.958;7.976;2023-04-06T07:44:15;17.50;;;7.50;;
1563;SDS011;775;51.958;7.976;2023-04-06T07:46:42;15.67;;;8.30;;
1563;SDS011;775;51.958;7.976;2023-04-06T07:49:09;16.83;;;7.80;;
1563;SDS011;775;51.958;7.976;2023-04-06T07:51:37;16.00;;;7.00;;
1563;SDS011;775;51.958;7.976;2023-04-06T07:54:04;16.57;;;7.80;;
1563;SDS011;775;51.958;7.976;2023-04-06T07:56:31;16.77;;;6.93;;
1563;SDS011;775;51.958;7.976;2023-04-06T07:59:00;17.40;;;7.20;;
1563;SDS011;775;51.958;7.976;2023-04-06T08:01:28;16.77;;;7.97;;
1563;SDS011;775;51.958;7.976;2023-04-06T08:03:55;17.17;;;7.80;;
1563;SDS011;775;51.958;7.976;2023-04-06T08:06:23;16.17;;;7.73;;
1563;SDS011;775;51.958;7.976;2023-04-06T08:08:51;16.80;;;7.57;;
1563;SDS011;775;51.958;7.976;2023-04-06T08:11:18;13.90;;;5.80;;
1563;SDS011;775;51.958;7.976;2023-04-06T08:13:45;13.73;;;6.70;;
1563;SDS011;775;51.958;7.976;2023-04-06T08:16:14;19.93;;;6.80;;
1563;SDS011;775;51.958;7.976;2023-04-06T08:18:41;15.57;;;6.60;;
1563;SDS011;775;51.958;7.976;2023-04-06T08:21:08;14.93;;;6.50;;
1563;SDS011;775;51.958;7.976;2023-04-06T08:23:35;14.57;;;6.33;;
1563;SDS011;775;51.958;7.976;2023-04-06T08:26:02;17.43;;;6.80;;
1563;SDS011;775;51.958;7.976;2023-04-06T08:28:30;16.63;;;6.47;;
1563;SDS011;775;51.958;7.976;2023-04-06T08:30:57;16.00;;;6.87;;
1563;SDS011;775;51.958;7.976;2023-04-06T08:33:25;16.30;;;6.80;;
1563;SDS011;775;51.958;7.976;2023-04-06T08:35:53;14.43;;;6.97;;
1563;SDS011;775;51.958;7.976;2023-04-06T08:38:20;17.60;;;7.03;;
1563;SDS011;775;51.958;7.976;2023-04-06T08:40:47;15.03;;;6.10;;
1563;SDS011;775;51.958;7.976;2023-04-06T08:43:16;17.90;;;7.50;;
1563;SDS011;775;51.958;7.976;2023-04-06T08:45:44;18.43;;;6.17;;
1563;SDS011;775;51.958;7.976;2023-04-06T08:48:11;15.87;;;7.23;;
1563;SDS011;775;51.958;7.976;2023-04-06T08:50:40;16.43;;;7.23;;
1563;SDS011;775;51.958;7.976;2023-04-06T08:53:07;19.20;;;6.77;;
1563;SDS011;775;51.958;7.976;2023-04-06T08:55:35;19.73;;;7.13;;
1563;SDS011;775;51.958;7.976;2023-04-06T08:58:02;13.90;;;6.37;;
1563;SDS011;775;51.958;7.976;2023-04-06T09:00:30;16.03;;;5.70;;
1563;SDS011;775;51.958;7.976;2023-04-06T09:02:57;13.90;;;6.23;;
1563;SDS011;775;51.958;7.976;2023-04-06T09:05:25;17.17;;;7.37;;
1563;SDS011;775;51.958;7.976;2023-04-06T09:07:54;14.13;;;6.70;;
1563;SDS011;775;51.958;7.976;2023-04-06T09:10:21;14.20;;;6.00;;
1563;SDS011;775;51.958;7.976;2023-04-06T09:12:50;15.93;;;7.17;;
1563;SDS011;775;51.958;7.976;2023-04-06T09:15:18;15.03;;;6.80;;
1563;SDS011;775;51.958;7.976;2023-04-06T09:17:45;15.83;;;6.87;;
1563;SDS011;775;51.958;7.976;2023-04-06T09:20:12;16.47;;;7.63;;
1563;SDS011;775;51.958;7.976;2023-04-06T09:22:42;14.70;;;7.30;;
1563;SDS011;775;51.958;7.976;2023-04-06T09:25:17;14.10;;;6.60;;
1563;SDS011;775;51.958;7.976;2023-04-06T09:27:45;14.10;;;6.30;;
1563;SDS011;775;51.958;7.976;2023-04-06T09:30:13;14.80;;;6.43;;
1563;SDS011;775;51.958;7.976;2023-04-06T09:32:45;15.87;;;7.70;;
1563;SDS011;775;51.958;7.976;2023-04-06T09:35:12;17.37;;;7.90;;
1563;SDS011;775;51.958;7.976;2023-04-06T09:37:40;18.33;;;8.27;;
1563;SDS011;775;51.958;7.976;2023-04-06T09:40:07;15.60;;;7.20;;
1563;SDS011;775;51.958;7.976;2023-04-06T09:42:36;16.30;;;7.37;;
1563;SDS011;775;51.958;7.976;2023-04-06T09:45:04;15.70;;;7.37;;
1563;SDS011;775;51.958;7.976;2023-04-06T09:47:32;16.93;;;7.57;;
1563;SDS011;775;51.958;7.976;2023-04-06T09:50:00;16.83;;;8.00;;
1563;SDS011;775;51.958;7.976;2023-04-06T09:52:27;16.70;;;7.57;;
1563;SDS011;775;51.958;7.976;2023-04-06T09:54:59;22.40;;;8.57;;
1563;SDS011;775;51.958;7.976;2023-04-06T09:57:29;15.60;;;7.50;;
1563;SDS011;775;51.958;7.976;2023-04-06T10:02:36;16.80;;;8.10;;
1563;SDS011;775;51.958;7.976;2023-04-06T10:05:07;20.30;;;9.10;;
1563;SDS011;775;51.958;7.976;2023-04-06T10:07:36;18.83;;;8.43;;
1563;SDS011;775;51.958;7.976;2023-04-06T10:10:05;20.03;;;8.33;;
1563;SDS011;775;51.958;7.976;2023-04-06T10:12:33;16.17;;;8.07;;
1563;SDS011;775;51.958;7.976;2023-04-06T10:15:00;15.80;;;7.77;;
1563;SDS011;775;51.958;7.976;2023-04-06T10:17:27;17.07;;;7.90;;
1563;SDS011;775;51.958;7.976;2023-04-06T10:19:58;18.03;;;7.60;;
1563;SDS011;775;51.958;7.976;2023-04-06T10:22:27;16.83;;;7.73;;
1563;SDS011;775;51.958;7.976;2023-04-06T10:24:56;17.03;;;7.33;;
1563;SDS011;775;51.958;7.976;2023-04-06T10:27:29;16.53;;;7.50;;
1563;SDS011;775;51.958;7.976;2023-04-06T10:30:00;17.67;;;8.20;;
1563;SDS011;775;51.958;7.976;2023-04-06T10:32:34;18.13;;;8.40;;
1563;SDS011;775;51.958;7.976;2023-04-06T10:35:07;18.40;;;8.20;;
1563;SDS011;775;51.958;7.976;2023-04-06T10:37:47;18.33;;;7.97;;
1563;SDS011;775;51.958;7.976;2023-04-06T10:40:21;12.50;;;5.03;;
1563;SDS011;775;51.958;7.976;2023-04-06T10:42:49;24.73;;;8.73;;
1563;SDS011;775;51.958;7.976;2023-04-06T10:45:20;16.57;;;8.40;;
1563;SDS011;775;51.958;7.976;2023-04-06T10:47:47;17.80;;;8.80;;
1563;SDS011;775;51.958;7.976;2023-04-06T10:50:16;18.43;;;9.30;;
1563;SDS011;775;51.958;7.976;2023-04-06T10:52:44;20.30;;;9.73;;
1563;SDS011;775;51.958;7.976;2023-04-06T10:55:12;19.30;;;9.00;;
1563;SDS011;775;51.958;7.976;2023-04-06T10:57:40;20.10;;;9.10;;
1563;SDS011;775;51.958;7.976;2023-04-06T11:00:07;17.70;;;7.37;;
1563;SDS011;775;51.958;7.976;2023-04-06T11:02:35;17.80;;;8.77;;
1563;SDS011;775;51.958;7.976;2023-04-06T11:05:03;15.50;;;7.27;;
1563;SDS011;775;51.958;7.976;2023-04-06T11:07:31;14.53;;;5.80;;
1563;SDS011;775;51.958;7.976;2023-04-06T11:09:59;18.27;;;7.10;;
1563;SDS011;775;51.958;7.976;2023-04-06T11:12:26;17.83;;;8.60;;
1563;SDS011;775;51.958;7.976;2023-04-06T11:14:55;16.27;;;7.77;;
1563;SDS011;775;51.958;7.976;2023-04-06T11:17:27;19.03;;;8.50;;
1563;SDS011;775;51.958;7.976;2023-04-06T11:19:55;18.80;;;8.73;;
1563;SDS011;775;51.958;7.976;2023-04-06T11:22:22;18.80;;;9.30;;
1563;SDS011;775;51.958;7.976;2023-04-06T11:24:51;18.70;;;8.63;;
1563;SDS011;775;51.958;7.976;2023-04-06T11:27:18;25.43;;;10.60;;
1563;SDS011;775;51.958;7.976;2023-04-06T11:29:45;19.00;;;9.57;;
1563;SDS011;775;51.958;7.976;2023-04-06T11:32:19;18.80;;;9.47;;
1563;SDS011;775;51.958;7.976;2023-04-06T11:34:47;19.17;;;9.70;;
1563;SDS011;775;51.958;7.976;2023-04-06T11:37:14;20.13;;;10.03;;
1563;SDS011;775;51.958;7.976;2023-04-06T11:39:43;19.63;;;9.80;;
1563;SDS011;775;51.958;7.976;2023-04-06T11:42:20;20.53;;;10.50;;
1563;SDS011;775;51.958;7.976;2023-04-06T11:44:49;20.67;;;10.77;;
1563;SDS011;775;51.958;7.976;2023-04-06T11:47:17;18.20;;;9.37;;
1563;SDS011;775;51.958;7.976;2023-04-06T11:49:44;19.43;;;9.57;;
1563;SDS011;775;51.958;7.976;2023-04-06T11:52:16;21.07;;;9.57;;
1563;SDS011;775;51.958;7.976;2023-04-06T11:54:43;20.63;;;10.17;;
1563;SDS011;775;51.958;7.976;2023-04-06T11:57:10;21.67;;;10.57;;
1563;SDS011;775;51.958;7.976;2023-04-06T11:59:39;21.33;;;10.13;;
1563;SDS011;775;51.958;7.976;2023-04-06T12:02:09;19.33;;;9.57;;
1563;SDS011;775;51.958;7.976;2023-04-06T12:04:36;17.53;;;8.00;;
1563;SDS011;775;51.958;7.976;2023-04-06T12:07:04;19.50;;;8.70;;
1563;SDS011;775;51.958;7.976;2023-04-06T12:09:31;23.10;;;9.67;;
1563;SDS011;775;51.958;7.976;2023-04-06T12:11:59;22.07;;;10.13;;
1563;SDS011;775;51.958;7.976;2023-04-06T12:14:27;20.53;;;10.27;;
1563;SDS011;775;51.958;7.976;2023-04-06T12:16:57;20.03;;;8.73;;
1563;SDS011;775;51.958;7.976;2023-04-06T12:19:24;21.77;;;10.30;;
1563;SDS011;775;51.958;7.976;2023-04-06T12:21:52;17.60;;;9.27;;
1563;SDS011;775;51.958;7.976;2023-04-06T12:24:20;22.20;;;10.10;;
1563;SDS011;775;51.958;7.976;2023-04-06T12:26:47;22.60;;;10.20;;
1563;SDS011;775;51.958;7.976;2023-04-06T12:29:15;19.20;;;10.00;;
1563;SDS011;775;51.958;7.976;2023-04-06T12:31:42;19.83;;;9.87;;
1563;SDS011;775;51.958;7.976;2023-04-06T12:34:11;19.37;;;9.77;;
1563;SDS011;775;51.958;7.976;2023-04-06T12:36:38;22.47;;;7.70;;
1563;SDS011;775;51.958;7.976;2023-04-06T12:39:05;13.70;;;5.30;;
1563;SDS011;775;51.958;7.976;2023-04-06T12:41:33;14.00;;;5.40;;
1563;SDS011;775;51.958;7.976;2023-04-06T12:44:00;18.83;;;9.33;;
1563;SDS011;775;51.958;7.976;2023-04-06T12:46:28;19.53;;;9.80;;
1563;SDS011;775;51.958;7.976;2023-04-06T12:48:56;21.57;;;9.90;;
1563;SDS011;775;51.958;7.976;2023-04-06T12:51:26;21.50;;;9.80;;
1563;SDS011;775;51.958;7.976;2023-04-06T12:53:54;21.13;;;9.40;;
1563;SDS011;775;51.958;7.976;2023-04-06T12:56:21;18.47;;;8.50;;
1563;SDS011;775;51.958;7.976;2023-04-06T12:58:49;16.30;;;7.60;;
1563;SDS011;775;51.958;7.976;2023-04-06T13:01:17;17.83;;;7.40;;
1563;SDS011;775;51.958;7.976;2023-04-06T13:03:44;18.63;;;8.20;;
1563;SDS011;775;51.958;7.976;2023-04-06T13:06:11;15.77;;;7.13;;
1563;SDS011;775;51.958;7.976;2023-04-06T13:08:41;14.20;;;6.73;;
1563;SDS011;775;51.958;7.976;2023-04-06T13:11:08;17.80;;;7.10;;
1563;SDS011;775;51.958;7.976;2023-04-06T13:13:37;19.57;;;8.07;;
1563;SDS011;775;51.958;7.976;2023-04-06T13:16:05;20.07;;;7.67;;
1563;SDS011;775;51.958;7.976;2023-04-06T13:18:32;18.57;;;8.30;;
1563;SDS011;775;51.958;7.976;2023-04-06T13:21:00;18.77;;;8.90;;
1563;SDS011;775;51.958;7.976;2023-04-06T13:23:27;20.87;;;9.00;;
1563;SDS011;775;51.958;7.976;2023-04-06T13:26:00;19.33;;;9.17;;
1563;SDS011;775;51.958;7.976;2023-04-06T13:28:28;20.97;;;9.47;;
1563;SDS011;775;51.958;7.976;2023-04-06T13:30:55;19.30;;;9.23;;
1563;SDS011;775;51.958;7.976;2023-04-06T13:33:22;20.00;;;9.73;;
1563;SDS011;775;51.958;7.976;2023-04-06T13:35:49;20.17;;;9.57;;
1563;SDS011;775;51.958;7.976;2023-04-06T13:38:16;19.10;;;9.00;;
1563;SDS011;775;51.958;7.976;2023-04-06T13:40:44;18.03;;;8.23;;
1563;SDS011;775;51.958;7.976;2023-04-06T13:43:12;17.17;;;8.23;;
1563;SDS011;775;51.958;7.976;2023-04-06T13:45:40;25.93;;;9.77;;
1563;SDS011;775;51.958;7.976;2023-04-06T13:48:07;19.37;;;9.73;;
1563;SDS011;775;51.958;7.976;2023-04-06T13:50:34;19.80;;;9.10;;
1563;SDS011;775;51.958;7.976;2023-04-06T13:53:01;21.10;;;10.40;;
1563;SDS011;775;51.958;7.976;2023-04-06T13:55:28;20.40;;;9.30;;
1563;SDS011;775;51.958;7.976;2023-04-06T13:57:56;18.10;;;9.67;;
1563;SDS011;775;51.958;7.976;2023-04-06T14:00:24;21.80;;;10.57;;
1563;SDS011;775;51.958;7.976;2023-04-06T14:02:53;20.50;;;10.17;;
1563;SDS011;775;51.958;7.976;2023-04-06T14:05:20;23.63;;;10.70;;
1563;SDS011;775;51.958;7.976;2023-04-06T14:07:48;23.33;;;10.10;;
1563;SDS011;775;51.958;7.976;2023-04-06T14:10:16;19.10;;;9.50;;
1563;SDS011;775;51.958;7.976;2023-04-06T14:12:46;19.23;;;8.53;;
1563;SDS011;775;51.958;7.976;2023-04-06T14:15:13;22.90;;;10.50;;
1563;SDS011;775;51.958;7.976;2023-04-06T14:17:41;21.13;;;10.57;;
1563;SDS011;775;51.958;7.976;2023-04-06T14:20:09;22.00;;;10.17;;
1563;SDS011;775;51.958;7.976;2023-04-06T14:22:39;23.07;;;11.10;;
1563;SDS011;775;51.958;7.976;2023-04-06T14:25:07;20.47;;;9.80;;
1563;SDS011;775;51.958;7.976;2023-04-06T14:27:34;25.73;;;11.53;;
1563;SDS011;775;51.958;7.976;2023-04-06T14:30:01;20.53;;;10.47;;
1563;SDS011;775;51.958;7.976;2023-04-06T14:32:29;21.37;;;11.33;;
1563;SDS011;775;51.958;7.976;2023-04-06T14:34:57;21.23;;;10.63;;
1563;SDS011;775;51.958;7.976;2023-04-06T14:37:24;23.17;;;11.30;;
1563;SDS011;775;51.958;7.976;2023-04-06T14:39:52;21.40;;;11.30;;
1563;SDS011;775;51.958;7.976;2023-04-06T14:42:19;22.40;;;11.60;;
1563;SDS011;775;51.958;7.976;2023-04-06T14:44:46;21.90;;;10.87;;
1563;SDS011;775;51.958;7.976;2023-04-06T14:47:13;22.53;;;12.17;;
1563;SDS011;775;51.958;7.976;2023-04-06T14:49:45;24.93;;;12.37;;
1563;SDS011;775;51.958;7.976;2023-04-06T14:52:13;22.43;;;10.70;;
1563;SDS011;775;51.958;7.976;2023-04-06T14:54:40;22.07;;;11.60;;
1563;SDS011;775;51.958;7.976;2023-04-06T14:57:07;24.77;;;11.63;;
1563;SDS011;775;51.958;7.976;2023-04-06T14:59:35;25.20;;;12.90;;
1563;SDS011;775;51.958;7.976;2023-04-06T15:02:02;21.90;;;12.33;;
1563;SDS011;775;51.958;7.976;2023-04-06T15:04:29;22.73;;;11.90;;
1563;SDS011;775;51.958;7.976;2023-04-06T15:06:56;23.77;;;12.37;;
1563;SDS011;775;51.958;7.976;2023-04-06T15:09:24;21.43;;;10.23;;
1563;SDS011;775;51.958;7.976;2023-04-06T15:11:51;22.93;;;10.80;;
1563;SDS011;775;51.958;7.976;2023-04-06T15:14:19;21.60;;;11.80;;
1563;SDS011;775;51.958;7.976;2023-04-06T15:16:46;23.77;;;11.80;;
1563;SDS011;775;51.958;7.976;2023-04-06T15:19:13;23.13;;;11.30;;
1563;SDS011;775;51.958;7.976;2023-04-06T15:21:40;23.97;;;11.60;;
1563;SDS011;775;51.958;7.976;2023-04-06T15:24:07;23.70;;;11.37;;
1563;SDS011;775;51.958;7.976;2023-04-06T15:26:36;24.77;;;12.30;;